Time;durP1;ratioP1;P1;durP2;ratioP2;P2;SDS_P1;SDS_P2;PMS_P1;PMS_P2;Temp;Humidity;BMP_temperature;BMP_pressure;BME280_temperature;BME280_humidity;BME280_pressure;Samples;Min_cycle;Max_cycle;Signal;HPM_P1;HPM_P2
2022/10/08 00:00:56;;;;;;;20.20;12.70;;;;;;;15.79;68.70;99380.69;5140515;28;20527;-81
2022/10/08 00:03:50;;;;;;;20.40;12.07;;;;;;;14.95;69.06;99226.84;5149390;28;20423;-81
2022/10/08 00:06:43;;;;;;;17.58;12.75;;;;;;;15.27;69.32;99290.97;5153863;28;20084;-82
2022/10/08 00:09:37;;;;;;;20.58;12.43;;;;;;;15.45;70.54;99352.25;5159670;28;20053;-81
2022/10/08 00:12:31;;;;;;;22.35;13.75;;;;;;;15.16;70.69;99309.97;5137633;28;20137;-81
2022/10/08 00:15:26;;;;;;;23.30;12.63;;;;;;;14.93;69.27;99266.22;5178223;28;20530;-81
2022/10/08 00:18:18;;;;;;;20.27;12.50;;;;;;;15.38;69.62;99321.84;5144766;28;20069;-82
2022/10/08 00:21:31;;;;;;;22.67;12.25;;;;;;;15.34;70.30;99328.53;5158185;28;20151;-81
2022/10/08 00:24:29;;;;;;;23.70;12.35;;;;;;;15.37;69.65;99324.72;5162761;28;20069;-82
2022/10/08 00:27:33;;;;;;;19.75;12.43;;;;;;;14.94;69.29;99247.38;5178085;28;20057;-82
2022/10/08 00:30:34;;;;;;;21.77;13.38;;;;;;;15.56;69.47;99383.16;5187423;28;20078;-84
2022/10/08 00:33:31;;;;;;;18.75;12.07;;;;;;;14.94;69.06;99295.44;5159100;28;20104;-82
2022/10/08 00:36:32;;;;;;;15.77;11.18;;;;;;;14.93;68.99;99293.78;5157871;28;20070;-86
2022/10/08 00:39:27;;;;;;;17.42;11.65;;;;;;;14.80;69.05;99294.25;5172164;28;20072;-81
2022/10/08 00:42:23;;;;;;;16.27;10.93;;;;;;;15.33;69.21;99374.97;5160530;28;20084;-83
2022/10/08 00:45:23;;;;;;;16.50;10.98;;;;;;;15.27;68.94;99370.28;5157897;28;20526;-82
2022/10/08 00:48:24;;;;;;;22.15;12.15;;;;;;;15.15;69.13;99374.25;5165959;28;20141;-82
2022/10/08 00:51:18;;;;;;;23.58;12.82;;;;;;;14.95;68.89;99329.16;5146459;28;20315;-82
2022/10/08 00:54:20;;;;;;;18.55;11.63;;;;;;;14.76;69.01;99300.06;5158770;28;20191;-82
2022/10/08 00:57:23;;;;;;;17.05;12.02;;;;;;;14.21;68.97;99229.34;5177625;28;20064;-83
2022/10/08 01:00:40;;;;;;;17.00;11.93;;;;;;;14.90;69.26;99362.66;5178233;28;20130;-81
2022/10/08 01:03:44;;;;;;;18.98;11.43;;;;;;;14.31;69.46;99285.22;5174122;28;20121;-82
2022/10/08 01:07:06;;;;;;;23.27;12.65;;;;;;;14.96;69.60;99362.00;5155533;28;20056;-83
2022/10/08 01:10:20;;;;;;;24.10;13.35;;;;;;;14.42;69.66;99271.59;5147723;28;20129;-82
2022/10/08 01:13:37;;;;;;;;;;;;;;;14.87;70.18;99347.81;5151437;28;20113;-82
2022/10/08 01:16:48;;;;;;;20.23;13.05;;;;;;;14.78;69.76;99311.44;5167108;28;20299;-82
2022/10/08 01:19:57;;;;;;;23.67;13.93;;;;;;;14.88;69.71;99343.31;5158149;28;20057;-82
2022/10/08 01:23:20;;;;;;;25.00;14.38;;;;;;;14.81;71.12;99337.78;5155844;28;20132;-83
2022/10/08 01:26:24;;;;;;;23.88;15.57;;;;;;;14.94;70.74;99340.84;5154654;28;20053;-84
2022/10/08 01:29:24;;;;;;;25.50;14.18;;;;;;;14.66;70.71;99297.53;5156134;28;20061;-84
2022/10/08 01:32:20;;;;;;;20.90;13.70;;;;;;;15.01;71.12;99347.19;5153639;28;20053;-83
2022/10/08 01:35:19;;;;;;;20.98;13.68;;;;;;;14.77;71.29;99267.06;5161064;28;20052;-82
2022/10/08 01:38:18;;;;;;;23.27;13.43;;;;;;;14.37;71.29;99223.22;5169013;28;20074;-82
2022/10/08 01:41:14;;;;;;;17.90;12.57;;;;;;;14.84;70.86;99300.09;5166586;28;20101;-82
2022/10/08 01:44:23;;;;;;;21.13;14.18;;;;;;;15.03;70.77;99334.50;5156089;28;20065;-82
2022/10/08 01:47:22;;;;;;;25.98;14.63;;;;;;;15.13;70.94;99339.72;5156796;28;20104;-80
2022/10/08 01:50:19;;;;;;;24.20;14.88;;;;;;;14.26;70.87;99212.84;5154846;28;20046;-81
2022/10/08 01:53:15;;;;;;;23.27;12.88;;;;;;;14.59;70.79;99279.66;5175776;28;20054;-81
2022/10/08 01:56:10;;;;;;;19.05;13.55;;;;;;;14.91;71.16;99340.31;5151533;28;20340;-83
2022/10/08 01:59:09;;;;;;;19.52;12.35;;;;;;;14.06;70.67;99210.44;5179877;28;20049;-82
2022/10/08 02:02:22;;;;;;;20.08;13.10;;;;;;;14.52;70.71;99274.16;5160895;28;20057;-82
2022/10/08 02:05:16;;;;;;;21.10;12.73;;;;;;;14.88;70.32;99335.31;5162063;28;20073;-82
2022/10/08 02:08:08;;;;;;;;;;;;;;;14.86;70.44;99338.13;5162103;28;20137;-81
2022/10/08 02:10:59;;;;;;;20.70;12.55;;;;;;;14.51;71.88;99284.00;5179294;28;19921;-83
2022/10/08 02:13:51;;;;;;;22.17;13.02;;;;;;;14.48;70.70;99246.94;5188484;28;20058;-82
2022/10/08 02:16:51;;;;;;;19.75;13.02;;;;;;;14.82;70.39;99312.75;5167730;28;20054;-81
2022/10/08 02:19:53;;;;;;;21.48;12.48;;;;;;;14.63;70.58;99268.50;5168682;28;20186;-81
2022/10/08 02:23:03;;;;;;;23.92;13.75;;;;;;;14.57;69.98;99237.16;5172351;28;20077;-81
2022/10/08 02:26:05;;;;;;;20.27;13.70;;;;;;;14.74;70.11;99270.88;5165267;28;20056;-82
2022/10/08 02:29:04;;;;;;;24.25;13.88;;;;;;;14.30;70.22;99244.38;5163397;28;20064;-82
2022/10/08 02:32:07;;;;;;;21.63;13.60;;;;;;;14.69;70.28;99336.41;5162448;28;20242;-83
2022/10/08 02:35:31;;;;;;;19.27;13.38;;;;;;;14.43;70.43;99286.59;5172445;28;20554;-84
2022/10/08 02:38:33;;;;;;;20.58;13.15;;;;;;;14.52;71.40;99307.00;5163753;28;20376;-81
2022/10/08 02:41:49;;;;;;;21.60;13.45;;;;;;;14.49;70.61;99285.94;5151524;28;20058;-81
2022/10/08 02:45:06;;;;;;;20.88;13.48;;;;;;;14.95;71.11;99318.47;5164629;28;20050;-82
2022/10/08 02:48:06;;;;;;;18.42;13.15;;;;;;;14.51;70.57;99275.16;5169066;28;20053;-82
2022/10/08 02:51:04;;;;;;;18.52;12.82;;;;;;;14.67;70.21;99309.03;5147223;28;20046;-84
2022/10/08 02:53:58;;;;;;;23.35;13.90;;;;;;;14.01;70.61;99199.44;5154146;28;20419;-83
2022/10/08 02:56:56;;;;;;;18.23;12.73;;;;;;;14.13;70.66;99188.47;5154701;28;20050;-83
2022/10/08 02:59:47;;;;;;;25.40;13.93;;;;;;;14.48;70.30;99252.25;5158191;28;20057;-84
2022/10/08 03:02:50;;;;;;;20.60;13.02;;;;;;;14.70;70.95;99306.03;5147852;28;20057;-82
2022/10/08 03:05:43;;;;;;;22.40;13.27;;;;;;;14.86;70.78;99329.28;5179614;28;20061;-82
2022/10/08 03:08:43;;;;;;;20.10;13.30;;;;;;;14.99;70.98;99351.00;5184337;28;20049;-81
2022/10/08 03:11:34;;;;;;;23.48;13.25;;;;;;;15.07;71.44;99351.03;5167939;28;20155;-81
2022/10/08 03:14:26;;;;;;;24.00;13.82;;;;;;;14.31;71.69;99213.22;5151048;28;20060;-82
2022/10/08 03:17:23;;;;;;;23.48;13.40;;;;;;;15.06;71.04;99325.31;5163256;28;20062;-81
2022/10/08 03:20:15;;;;;;;23.08;13.13;;;;;;;14.31;70.72;99219.38;5146490;28;20046;-82
2022/10/08 03:23:06;;;;;;;19.38;12.95;;;;;;;15.02;71.81;99361.38;5147039;28;20076;-82
2022/10/08 03:25:58;;;;;;;19.35;12.77;;;;;;;15.13;71.32;99371.75;5170108;28;20133;-82
2022/10/08 03:28:52;;;;;;;23.02;13.75;;;;;;;15.08;71.22;99354.53;5172750;28;20084;-81
2022/10/08 03:31:47;;;;;;;24.33;13.90;;;;;;;14.70;71.09;99282.03;5163058;28;20050;-82
2022/10/08 03:34:42;;;;;;;19.23;12.85;;;;;;;15.13;71.10;99366.41;5165527;28;20054;-83
2022/10/08 03:37:33;;;;;;;24.20;13.00;;;;;;;15.01;70.84;99344.50;5168854;28;20054;-82
2022/10/08 03:40:29;;;;;;;23.30;13.00;;;;;;;15.15;70.67;99372.41;5147947;28;20057;-81
2022/10/08 03:43:32;;;;;;;29.38;13.43;;;;;;;15.06;71.42;99345.84;5168569;28;20064;-82
2022/10/08 03:46:23;;;;;;;20.83;13.40;;;;;;;15.15;71.06;99366.25;5146314;28;20328;-82
2022/10/08 03:49:16;;;;;;;21.90;12.95;;;;;;;15.12;71.24;99361.22;5141723;28;20416;-82
2022/10/08 03:52:14;;;;;;;26.27;13.77;;;;;;;14.54;71.60;99267.66;5154718;28;20085;-82
2022/10/08 03:55:06;;;;;;;22.73;13.52;;;;;;;15.30;70.92;99385.97;5154034;28;20441;-81
2022/10/08 03:58:00;;;;;;;22.77;14.10;;;;;;;15.04;71.03;99335.34;5154768;28;20412;-82
2022/10/08 04:01:08;;;;;;;22.75;13.30;;;;;;;14.93;70.76;99308.94;5150848;28;20089;-80
2022/10/08 04:03:59;;;;;;;24.10;13.77;;;;;;;15.41;70.93;99396.34;5152555;28;20053;-82
2022/10/08 04:06:55;;;;;;;24.38;13.90;;;;;;;14.92;70.54;99324.13;5163562;28;20050;-81
2022/10/08 04:09:46;;;;;;;25.88;14.40;;;;;;;15.32;70.46;99388.47;5165031;28;20508;-81
2022/10/08 04:12:40;;;;;;;23.05;13.45;;;;;;;14.91;71.07;99322.47;5159854;28;20502;-82
2022/10/08 04:15:31;;;;;;;24.08;14.60;;;;;;;15.52;71.04;99395.19;5158788;28;20080;-82
2022/10/08 04:18:28;;;;;;;21.30;14.43;;;;;;;15.48;70.83;99394.66;5164255;28;20467;-80
2022/10/08 04:21:29;;;;;;;22.33;14.48;;;;;;;15.38;71.12;99372.63;5168890;28;20056;-81
2022/10/08 04:24:39;;;;;;;23.63;15.80;;;;;;;15.65;70.96;99405.38;5161968;28;20200;-80
2022/10/08 04:27:33;;;;;;;24.42;15.13;;;;;;;15.35;70.44;99372.94;5160310;28;20053;-81
2022/10/08 04:30:35;;;;;;;27.90;15.82;;;;;;;14.49;69.90;99261.94;5163763;28;20049;-81
2022/10/08 04:33:37;;;;;;;22.33;13.55;;;;;;;14.98;69.84;99366.19;5160724;28;20065;-80
2022/10/08 04:36:34;;;;;;;22.83;14.38;;;;;;;15.33;70.92;99414.19;5160099;28;20527;-81
2022/10/08 04:39:29;;;;;;;23.20;13.98;;;;;;;15.11;70.75;99384.44;5160228;28;20072;-80
2022/10/08 04:42:21;;;;;;;25.30;13.50;;;;;;;14.89;70.55;99356.50;5156827;28;20069;-80
2022/10/08 04:45:12;;;;;;;18.33;12.32;;;;;;;15.16;70.48;99410.63;5161345;28;20050;-83
2022/10/08 04:48:07;;;;;;;24.85;14.27;;;;;;;15.09;70.74;99390.94;5155444;28;20050;-81
2022/10/08 04:51:07;;;;;;;23.27;14.13;;;;;;;14.32;70.11;99268.22;5158714;28;20046;-84
2022/10/08 04:54:00;;;;;;;22.95;14.35;;;;;;;15.20;70.43;99417.34;5163179;28;20049;-83
2022/10/08 04:56:55;;;;;;;27.00;14.40;;;;;;;15.20;71.27;99404.00;5159171;28;20065;-81
2022/10/08 04:59:48;;;;;;;24.52;14.95;;;;;;;14.60;71.24;99298.19;5168653;28;20515;-83
2022/10/08 05:03:02;;;;;;;33.13;17.33;;;;;;;15.25;72.77;99380.28;5159979;28;20046;-83
2022/10/08 05:06:00;;;;;;;28.35;16.25;;;;;;;15.59;72.83;99427.41;5159769;28;20054;-82
2022/10/08 05:09:03;;;;;;;39.25;17.85;;;;;;;15.70;72.21;99427.16;5195454;22;20052;-75
2022/10/08 05:12:02;;;;;;;32.78;17.27;;;;;;;15.22;71.56;99353.91;5168154;28;20104;-76
2022/10/08 05:14:55;;;;;;;29.20;16.88;;;;;;;15.59;71.40;99427.41;5167604;28;20160;-74
2022/10/08 05:17:50;;;;;;;29.25;16.48;;;;;;;15.01;72.22;99354.38;5163123;28;20081;-74
2022/10/08 05:20:54;;;;;;;32.67;17.23;;;;;;;15.03;71.60;99353.22;5164314;28;20092;-74
2022/10/08 05:23:57;;;;;;;29.67;16.50;;;;;;;15.44;71.51;99425.41;5190896;28;20517;-73
2022/10/08 05:27:25;;;;;;;27.92;16.13;;;;;;;14.89;71.27;99345.81;5168823;28;20131;-75
2022/10/08 05:30:24;;;;;;;36.85;17.17;;;;;;;15.40;72.35;99441.94;5199603;28;20056;-75
2022/10/08 05:33:21;;;;;;;31.90;16.75;;;;;;;14.85;71.15;99357.81;5166160;28;20056;-75
2022/10/08 05:36:23;;;;;;;30.25;16.25;;;;;;;15.30;72.39;99450.09;5170568;28;20060;-74
2022/10/08 05:39:23;;;;;;;32.78;17.17;;;;;;;14.74;71.80;99334.09;5166491;28;20543;-74
2022/10/08 05:42:36;;;;;;;32.03;16.70;;;;;;;15.27;71.51;99442.41;5182960;28;20095;-76
2022/10/08 05:45:50;;;;;;;32.10;15.82;;;;;;;14.77;71.12;99366.66;5172133;28;20136;-74
2022/10/08 05:48:57;;;;;;;24.35;14.85;;;;;;;15.20;70.88;99457.41;5179899;28;20092;-74
2022/10/08 05:52:02;;;;;;;23.42;14.50;;;;;;;14.76;70.63;99394.31;5170343;28;20157;-74
2022/10/08 05:55:13;;;;;;;28.30;15.25;;;;;;;14.30;70.64;99321.75;5165725;28;20081;-74
2022/10/08 05:58:22;;;;;;;23.98;15.63;;;;;;;14.25;70.29;99324.03;5160585;28;20072;-74
2022/10/08 06:01:25;;;;;;;27.20;15.18;;;;;;;14.68;70.12;99406.81;5182077;28;20518;-74
2022/10/08 06:04:20;;;;;;;27.83;14.57;;;;;;;14.95;70.96;99472.50;5168501;28;20046;-73
2022/10/08 06:07:11;;;;;;;25.80;13.82;;;;;;;14.80;70.71;99426.88;5184742;28;20049;-75
2022/10/08 06:10:03;;;;;;;25.65;15.18;;;;;;;15.02;71.05;99466.34;5194905;28;20045;-75
2022/10/08 06:12:55;;;;;;;26.00;15.23;;;;;;;14.97;70.71;99468.69;5168202;28;20054;-75
2022/10/08 06:16:10;;;;;;;25.92;14.50;;;;;;;14.98;70.95;99478.34;5172065;28;20053;-75
2022/10/08 06:19:02;;;;;;;25.83;16.02;;;;;;;15.13;71.52;99475.94;5166752;28;20046;-76
2022/10/08 06:21:55;;;;;;;31.85;16.33;;;;;;;14.95;71.04;99457.31;5182675;28;20049;-75
2022/10/08 06:24:46;;;;;;;30.77;16.50;;;;;;;14.82;71.66;99435.56;5181655;28;20132;-75
2022/10/08 06:27:45;;;;;;;25.58;15.25;;;;;;;14.56;71.07;99396.41;5170715;28;20051;-75
2022/10/08 06:30:40;;;;;;;28.17;16.25;;;;;;;14.88;71.28;99450.13;5164764;28;20041;-74
2022/10/08 06:33:47;;;;;;;32.97;16.10;;;;;;;14.63;72.11;99409.09;5167171;28;20076;-75
2022/10/08 06:36:45;;;;;;;31.88;17.35;;;;;;;14.71;72.55;99411.84;5166532;28;20517;-75
2022/10/08 06:39:42;;;;;;;34.42;17.38;;;;;;;15.35;72.61;99495.84;5191735;28;20060;-76
2022/10/08 06:42:48;;;;;;;33.25;16.98;;;;;;;14.91;72.92;99436.44;5178230;28;20103;-75
2022/10/08 06:45:54;;;;;;;35.00;16.75;;;;;;;15.13;73.73;99461.72;5172665;28;20054;-75
2022/10/08 06:48:55;;;;;;;37.17;17.23;;;;;;;15.21;73.72;99510.66;5172954;28;20049;-76
2022/10/08 06:52:05;;;;;;;36.33;17.02;;;;;;;15.51;73.12;99487.88;5167216;28;20053;-76
2022/10/08 06:54:58;;;;;;;38.17;18.70;;;;;;;15.52;72.33;99486.88;5176797;28;20427;-75
2022/10/08 06:57:54;;;;;;;40.88;19.02;;;;;;;15.77;72.33;99516.38;5157200;28;20518;-75
2022/10/08 07:00:45;;;;;;;34.42;17.95;;;;;;;16.14;70.90;99515.91;5180123;28;20052;-75
2022/10/08 07:03:42;;;;;;;;;;;;;;;16.05;71.58;99532.94;5169077;28;20056;-75
2022/10/08 07:06:33;;;;;;;33.28;16.20;;;;;;;16.22;71.39;99536.47;5167244;28;19929;-75
2022/10/08 07:09:29;;;;;;;34.22;17.23;;;;;;;16.43;70.79;99504.69;5182172;28;20057;-75
2022/10/08 07:12:21;;;;;;;30.70;16.42;;;;;;;16.47;69.00;99469.56;5179994;28;20057;-73
2022/10/08 07:15:13;;;;;;;30.83;16.65;;;;;;;17.22;68.92;99534.34;5178324;28;20286;-74
2022/10/08 07:18:13;;;;;;;26.95;15.32;;;;;;;17.55;68.41;99539.56;5178840;28;20051;-74
2022/10/08 07:21:07;;;;;;;25.13;14.48;;;;;;;16.88;69.99;99535.44;5180552;28;20146;-72
2022/10/08 07:24:00;;;;;;;26.30;13.07;;;;;;;17.49;67.33;99541.09;5166726;28;20458;-71
2022/10/08 07:26:51;;;;;;;21.83;12.20;;;;;;;18.06;66.26;99554.19;5166876;28;20089;-75
2022/10/08 07:29:46;;;;;;;26.33;12.38;;;;;;;17.62;67.03;99545.91;5161047;28;20492;-73
2022/10/08 07:32:37;;;;;;;20.15;11.45;;;;;;;17.79;65.64;99541.31;5167653;28;20083;-73
2022/10/08 07:35:29;;;;;;;19.17;10.20;;;;;;;18.01;64.68;99556.59;5177334;28;20057;-72
2022/10/08 07:38:26;;;;;;;21.17;9.98;;;;;;;18.23;63.41;99568.31;5171801;28;20416;-73
2022/10/08 07:41:19;;;;;;;22.80;9.85;;;;;;;17.79;65.03;99550.19;5181726;28;20046;-72
2022/10/08 07:44:10;;;;;;;22.17;7.80;;;;;;;18.11;62.14;99571.59;5179110;28;20061;-72
2022/10/08 07:47:04;;;;;;;14.27;6.32;;;;;;;17.55;63.93;99572.56;5193573;28;20049;-72
2022/10/08 07:49:58;;;;;;;12.30;5.40;;;;;;;17.72;61.89;99567.97;5184051;28;20068;-74
2022/10/08 07:52:52;;;;;;;13.65;4.95;;;;;;;18.00;60.29;99575.53;5180986;28;20131;-73
2022/10/08 07:55:43;;;;;;;10.23;4.75;;;;;;;18.77;58.72;99568.25;5183823;28;20065;-74
2022/10/08 07:58:35;;;;;;;13.00;4.47;;;;;;;19.89;55.41;99575.34;5168656;28;20053;-73
2022/10/08 08:01:47;;;;;;;13.65;3.55;;;;;;;19.46;53.84;99510.66;5173529;28;20061;-75
2022/10/08 08:04:39;;;;;;;16.15;3.33;;;;;;;18.99;54.68;99528.06;5175199;28;20564;-72
2022/10/08 08:07:30;;;;;;;10.27;2.80;;;;;;;19.16;52.51;99577.91;5193072;28;20049;-75
2022/10/08 08:10:21;;;;;;;11.13;3.38;;;;;;;18.27;52.73;99513.25;5172351;28;20053;-76
2022/10/08 08:13:31;;;;;;;11.25;2.80;;;;;;;18.63;53.15;99577.06;5165140;28;20114;-74
2022/10/08 08:16:30;;;;;;;13.93;3.00;;;;;;;19.38;51.86;99564.56;5187642;28;20127;-72
2022/10/08 08:19:23;;;;;;;12.68;2.90;;;;;;;19.82;50.48;99582.53;5176964;28;20061;-73
2022/10/08 08:22:16;;;;;;;12.77;3.10;;;;;;;19.97;50.35;99583.31;5185214;28;20061;-73
2022/10/08 08:25:07;;;;;;;6.57;2.45;;;;;;;19.57;49.94;99574.75;5186737;28;20107;-72
2022/10/08 08:27:57;;;;;;;11.48;2.78;;;;;;;20.05;49.03;99585.06;5178992;28;20115;-73
2022/10/08 08:30:48;;;;;;;11.98;2.97;;;;;;;19.66;48.47;99595.16;5168819;28;20060;-74
2022/10/08 08:33:40;;;;;;;10.40;2.80;;;;;;;19.59;50.52;99599.59;5181752;28;20041;-70
2022/10/08 08:36:33;;;;;;;21.25;2.78;;;;;;;18.84;49.49;99599.75;5199851;28;20428;-70
2022/10/08 08:39:25;;;;;;;9.73;2.00;;;;;;;19.79;48.38;99589.09;5178259;28;20180;-70
2022/10/08 08:42:26;;;;;;;14.25;2.80;;;;;;;20.16;48.01;99590.78;5199400;28;20056;-70
2022/10/08 08:45:26;;;;;;;10.82;2.40;;;;;;;19.76;48.33;99597.56;5200054;28;20064;-70
2022/10/08 08:48:38;;;;;;;9.68;2.78;;;;;;;20.06;45.72;99592.94;5181752;28;20542;-70
2022/10/08 08:51:28;;;;;;;8.63;2.58;;;;;;;19.14;48.08;99590.72;5194839;28;20053;-70
2022/10/08 08:54:19;;;;;;;17.45;2.20;;;;;;;20.19;45.57;99614.59;5182016;28;20537;-69
2022/10/08 08:57:29;;;;;;;11.25;2.10;;;;;;;19.58;46.62;99608.69;5201137;28;20057;-69
2022/10/08 09:00:23;;;;;;;12.82;2.15;;;;;;;20.41;46.43;99602.00;5197686;28;20041;-70
2022/10/08 09:03:33;;;;;;;14.32;2.60;;;;;;;19.04;47.75;99600.91;5201573;28;20057;-69
2022/10/08 09:06:27;;;;;;;9.10;2.05;;;;;;;18.44;49.77;99604.41;5199195;28;20077;-73
2022/10/08 09:09:37;;;;;;;9.83;2.17;;;;;;;18.89;47.78;99611.63;5195692;28;20070;-70
2022/10/08 09:12:44;;;;;;;11.93;2.55;;;;;;;20.15;45.48;99607.13;5196504;28;20056;-71
2022/10/08 09:15:36;;;;;;;11.52;2.22;;;;;;;21.68;43.73;99613.72;5199724;28;20194;-70
2022/10/08 09:18:27;;;;;;;10.40;2.97;;;;;;;20.38;44.15;99626.63;5178748;28;20048;-72
2022/10/08 09:21:21;;;;;;;15.50;2.47;;;;;;;20.72;44.97;99611.63;5189039;28;20080;-70
2022/10/08 09:24:13;;;;;;;10.98;1.85;;;;;;;19.74;45.05;99613.06;5189036;28;20056;-72
2022/10/08 09:27:13;;;;;;;13.15;2.03;;;;;;;19.47;45.76;99607.31;5185292;28;20150;-73
2022/10/08 09:30:25;;;;;;;9.30;1.67;;;;;;;18.83;46.55;99624.94;5178397;28;20518;-75
2022/10/08 09:33:28;;;;;;;12.50;2.78;;;;;;;19.41;46.25;99623.34;5196629;28;20121;-72
2022/10/08 09:36:47;;;;;;;7.70;1.83;;;;;;;19.29;47.45;99633.72;5197426;28;20060;-72
2022/10/08 09:39:38;;;;;;;7.45;2.00;;;;;;;19.64;46.48;99634.88;5192085;28;20097;-73
2022/10/08 09:42:28;;;;;;;9.40;2.08;;;;;;;18.17;46.62;99641.50;5196498;28;20562;-73
2022/10/08 09:45:33;;;;;;;17.58;2.30;;;;;;;18.98;48.46;99640.09;5196358;28;20106;-72
2022/10/08 09:48:26;;;;;;;15.45;2.30;;;;;;;20.31;46.25;99636.50;5196622;28;20096;-72
2022/10/08 09:51:17;;;;;;;8.43;1.80;;;;;;;20.42;45.88;99635.16;5187926;28;20084;-71
2022/10/08 09:54:11;;;;;;;9.15;2.65;;;;;;;19.77;46.55;99636.06;5203493;28;20491;-71
2022/10/08 09:57:02;;;;;;;9.98;2.20;;;;;;;20.44;45.41;99635.81;5201814;28;20068;-72
2022/10/08 09:59:58;;;;;;;14.13;2.17;;;;;;;21.24;43.91;99626.53;5204224;28;20057;-72
2022/10/08 10:02:53;;;;;;;12.50;2.28;;;;;;;21.49;42.91;99636.88;5171854;28;20058;-72
2022/10/08 10:05:50;;;;;;;12.75;2.13;;;;;;;21.26;43.33;99632.59;5194214;28;20058;-72
2022/10/08 10:08:42;;;;;;;7.78;2.10;;;;;;;20.50;46.17;99640.44;5200479;28;20057;-72
2022/10/08 10:11:40;;;;;;;18.42;2.63;;;;;;;21.09;45.31;99632.06;5192033;28;20522;-72
2022/10/08 10:14:50;;;;;;;10.07;2.72;;;;;;;21.63;45.37;99640.50;5187762;28;20199;-72
2022/10/08 10:17:53;;;;;;;11.20;2.25;;;;;;;19.62;45.15;99636.88;5191913;28;20439;-72
2022/10/08 10:20:48;;;;;;;8.18;1.80;;;;;;;19.01;45.15;99628.16;5203682;28;20190;-72
2022/10/08 10:24:02;;;;;;;15.85;2.38;;;;;;;18.15;47.50;99648.91;5203920;28;20608;-72
2022/10/08 10:26:55;;;;;;;11.35;2.20;;;;;;;18.47;47.65;99647.84;5202890;28;20140;-72
2022/10/08 10:29:53;;;;;;;9.13;1.77;;;;;;;18.99;46.60;99643.59;5191579;28;20107;-71
2022/10/08 10:32:54;;;;;;;7.78;1.67;;;;;;;19.33;48.30;99647.63;5171684;28;20156;-72
2022/10/08 10:35:52;;;;;;;11.65;2.47;;;;;;;19.59;47.33;99636.41;5199571;28;20103;-70
2022/10/08 10:39:02;;;;;;;10.57;1.85;;;;;;;19.48;47.55;99643.94;5200031;28;20069;-70
2022/10/08 10:42:02;;;;;;;7.43;1.98;;;;;;;18.25;46.61;99632.59;5195531;28;20491;-70
2022/10/08 10:44:56;;;;;;;8.60;2.00;;;;;;;18.23;46.54;99656.06;5200385;28;20053;-73
2022/10/08 10:47:47;;;;;;;7.80;1.60;;;;;;;18.12;48.39;99637.69;5182478;28;20072;-72
2022/10/08 10:50:53;;;;;;;7.85;1.90;;;;;;;18.22;47.56;99655.25;5203909;28;20138;-70
2022/10/08 10:54:02;;;;;;;7.22;1.88;;;;;;;18.62;46.26;99645.22;5201682;28;20297;-71
2022/10/08 10:57:03;;;;;;;8.40;1.80;;;;;;;19.39;47.72;99646.91;5202791;28;20826;-69
2022/10/08 11:00:04;;;;;;;9.10;1.70;;;;;;;18.48;47.56;99620.00;5211391;22;20042;-77
2022/10/08 11:03:06;;;;;;;9.73;1.98;;;;;;;18.26;47.30;99645.81;5161682;28;20097;-70
2022/10/08 11:06:15;;;;;;;11.90;1.77;;;;;;;18.44;47.18;99642.00;5162002;28;20475;-72
2022/10/08 11:09:20;;;;;;;8.00;2.03;;;;;;;18.78;48.23;99650.50;5162025;28;20343;-71
2022/10/08 11:12:58;;;;;;;4.82;1.65;;;;;;;19.55;47.26;99635.97;5127758;28;20051;-71
2022/10/08 11:16:07;;;;;;;14.50;1.73;;;;;;;19.02;47.46;99651.31;5129404;28;20059;-75
2022/10/08 11:19:01;;;;;;;9.10;1.80;;;;;;;18.57;46.92;99642.25;5137291;28;20053;-69
2022/10/08 11:21:54;;;;;;;13.13;2.20;;;;;;;19.75;45.49;99646.19;5141432;28;20412;-72
2022/10/08 11:25:03;;;;;;;6.05;1.30;;;;;;;19.24;46.36;99639.66;5140718;28;20472;-71
2022/10/08 11:28:06;;;;;;;13.20;2.00;;;;;;;19.22;46.81;99638.19;5128008;28;20108;-73
2022/10/08 11:31:29;;;;;;;8.55;1.80;;;;;;;19.27;47.89;99643.84;5138363;28;20089;-70
2022/10/08 11:34:25;;;;;;;9.18;2.20;;;;;;;18.24;46.77;99652.38;5140751;28;20543;-70
2022/10/08 11:37:39;;;;;;;9.88;1.80;;;;;;;18.68;47.12;99649.06;5138914;28;20683;-71
2022/10/08 11:40:41;;;;;;;7.60;1.52;;;;;;;19.32;45.05;99643.28;5138851;28;20038;-72
2022/10/08 11:43:43;;;;;;;6.38;1.20;;;;;;;18.47;46.52;99649.69;5139836;28;20085;-74
2022/10/08 11:46:35;;;;;;;8.77;1.55;;;;;;;17.68;48.28;99644.44;5138976;28;20050;-75
2022/10/08 11:49:25;;;;;;;8.20;1.77;;;;;;;17.89;48.20;99649.22;5140125;28;20066;-71
2022/10/08 11:52:16;;;;;;;9.93;2.78;;;;;;;18.36;47.61;99644.75;5139364;28;20654;-74
2022/10/08 11:55:24;;;;;;;6.75;1.48;;;;;;;18.75;47.01;99607.06;5123865;28;20082;-79
2022/10/08 11:58:22;;;;;;;9.50;2.38;;;;;;;19.53;46.58;99639.84;5138675;28;20054;-72
2022/10/08 12:01:13;;;;;;;11.40;2.50;;;;;;;19.31;46.96;99636.25;5139530;28;20446;-74
2022/10/08 12:04:19;;;;;;;5.40;1.35;;;;;;;19.65;46.20;99633.03;5140928;28;20539;-75
2022/10/08 12:07:21;;;;;;;10.55;1.55;;;;;;;19.81;43.97;99629.28;5141945;28;20054;-69
2022/10/08 12:10:17;;;;;;;5.85;1.50;;;;;;;19.39;45.75;99631.59;5141189;28;20416;-72
2022/10/08 12:13:09;;;;;;;5.50;1.40;;;;;;;19.39;45.88;99633.47;5146266;28;20065;-71
2022/10/08 12:16:06;;;;;;;6.70;1.85;;;;;;;18.21;47.30;99621.38;5126513;28;20170;-74
2022/10/08 12:18:57;;;;;;;7.60;1.73;;;;;;;18.20;48.80;99641.16;5127580;28;20062;-72
2022/10/08 12:21:49;;;;;;;5.97;1.80;;;;;;;17.89;49.10;99641.16;5141195;28;20050;-75
2022/10/08 12:24:39;;;;;;;4.85;1.50;;;;;;;18.04;49.20;99642.06;5138797;28;20185;-71
2022/10/08 12:27:36;;;;;;;6.30;1.50;;;;;;;19.09;47.70;99646.03;5139378;28;20072;-73
2022/10/08 12:30:49;;;;;;;4.38;1.35;;;;;;;18.78;45.64;99638.94;5138768;28;20054;-71
2022/10/08 12:33:39;;;;;;;5.35;1.17;;;;;;;18.83;44.65;99635.69;5140571;28;20046;-70
2022/10/08 12:36:48;;;;;;;4.72;0.98;;;;;;;18.68;45.90;99632.94;5139589;28;20047;-77
2022/10/08 12:39:43;;;;;;;6.35;1.48;;;;;;;18.27;46.46;99631.38;5141319;28;20132;-74
2022/10/08 12:42:37;;;;;;;6.65;1.45;;;;;;;18.34;46.67;99630.66;5141183;28;20484;-70
2022/10/08 12:45:39;;;;;;;4.63;1.20;;;;;;;18.34;47.04;99630.66;5141492;28;20054;-71
2022/10/08 12:48:49;;;;;;;6.97;1.33;;;;;;;18.49;47.02;99628.88;5141432;28;20053;-75
2022/10/08 12:51:57;;;;;;;11.18;1.30;;;;;;;18.98;46.53;99628.50;5142381;28;20121;-71
2022/10/08 12:54:56;;;;;;;6.00;1.17;;;;;;;18.13;47.35;99629.47;5143824;28;20417;-75
2022/10/08 12:57:48;;;;;;;6.80;1.02;;;;;;;17.96;46.96;99630.56;5130925;28;20089;-74
2022/10/08 13:00:42;;;;;;;8.68;0.90;;;;;;;18.36;47.13;99625.97;5123759;28;20058;-77
2022/10/08 13:03:32;;;;;;;4.47;1.50;;;;;;;18.10;46.85;99632.50;5124549;28;20078;-77
2022/10/08 13:06:27;;;;;;;11.10;1.42;;;;;;;18.89;46.90;99640.34;5123342;29;20078;-76
2022/10/08 13:09:34;;;;;;;8.68;1.15;;;;;;;18.82;46.12;99636.72;5134673;28;20057;-76
2022/10/08 13:12:24;;;;;;;5.20;1.35;;;;;;;18.84;47.06;99615.84;5142631;28;20047;-75
2022/10/08 13:15:22;;;;;;;5.18;1.13;;;;;;;19.46;45.26;99610.19;5143024;28;20057;-72
2022/10/08 13:18:21;;;;;;;6.95;0.90;;;;;;;19.64;45.52;99616.06;5142409;28;20070;-74
2022/10/08 13:21:34;;;;;;;3.78;0.85;;;;;;;18.75;45.58;99628.53;5142322;28;20109;-73
2022/10/08 13:24:24;;;;;;;4.88;1.27;;;;;;;18.47;47.03;99631.75;5139282;28;20046;-73
2022/10/08 13:27:24;;;;;;;6.50;1.27;;;;;;;19.21;44.97;99629.28;5127312;28;20556;-72
2022/10/08 13:30:26;;;;;;;3.40;1.10;;;;;;;19.09;45.15;99629.91;5135642;28;20047;-70
2022/10/08 13:33:20;;;;;;;9.88;2.60;;;;;;;18.92;46.50;99630.06;5137257;28;20054;-72
2022/10/08 13:36:20;;;;;;;8.57;2.33;;;;;;;18.52;47.63;99631.22;5128447;28;20051;-72
2022/10/08 13:39:26;;;;;;;6.78;1.30;;;;;;;18.83;46.85;99633.84;5139538;28;20065;-72
2022/10/08 13:42:19;;;;;;;6.10;1.27;;;;;;;18.90;48.02;99637.47;5129938;28;20066;-72
2022/10/08 13:45:24;;;;;;;3.47;1.00;;;;;;;18.42;48.51;99638.69;5141057;28;20517;-71
2022/10/08 13:48:14;;;;;;;1.23;0.80;;;;;;;17.87;49.66;99640.50;5141045;28;20657;-71
2022/10/08 13:51:03;;;;;;;7.88;1.15;;;;;;;18.32;48.05;99644.28;5140632;28;20572;-71